sensor_id;sensor_type;location;lat;lon;timestamp;pressure;altitude;pressure_sealevel;temperature;humidity
25156;BME280;21913;52.456;13.634;2022-11-20T00:04:14;99909.06;;;13.89;55.31
25156;BME280;21913;52.456;13.634;2022-11-20T00:09:16;99901.31;;;13.88;55.33
25156;BME280;21913;52.456;13.634;2022-11-20T00:14:18;99909.97;;;13.88;55.23
25156;BME280;21913;52.456;13.634;2022-11-20T00:19:19;99913.44;;;13.87;55.38
25156;BME280;21913;52.456;13.634;2022-11-20T00:24:21;99914.31;;;13.88;55.24
25156;BME280;21913;52.456;13.634;2022-11-20T00:29:23;99915.16;;;13.88;55.32
25156;BME280;21913;52.456;13.634;2022-11-20T00:34:24;99910.00;;;13.87;55.22
25156;BME280;21913;52.456;13.634;2022-11-20T00:39:26;99916.06;;;13.87;55.28
25156;BME280;21913;52.456;13.634;2022-11-20T00:44:28;99923.00;;;13.87;55.34
25156;BME280;21913;52.456;13.634;2022-11-20T00:49:29;99924.72;;;13.88;55.40
25156;BME280;21913;52.456;13.634;2022-11-20T00:54:31;99927.34;;;13.86;55.32
25156;BME280;21913;52.456;13.634;2022-11-20T00:59:33;99934.25;;;13.86;55.33
25156;BME280;21913;52.456;13.634;2022-11-20T01:04:34;99936.84;;;13.86;55.28
25156;BME280;21913;52.456;13.634;2022-11-20T01:09:36;99934.25;;;13.86;55.24
25156;BME280;21913;52.456;13.634;2022-11-20T01:14:37;99935.16;;;13.85;55.36
25156;BME280;21913;52.456;13.634;2022-11-20T01:19:39;99935.16;;;13.85;55.38
25156;BME280;21913;52.456;13.634;2022-11-20T01:24:41;99930.81;;;13.85;55.28
25156;BME280;21913;52.456;13.634;2022-11-20T01:29:42;99925.63;;;13.84;55.37
25156;BME280;21913;52.456;13.634;2022-11-20T01:34:44;99919.53;;;13.85;55.28
25156;BME280;21913;52.456;13.634;2022-11-20T01:39:46;99926.50;;;13.84;55.14
25156;BME280;21913;52.456;13.634;2022-11-20T01:49:59;99905.72;;;13.83;55.30
25156;BME280;21913;52.456;13.634;2022-11-20T01:55:11;99901.38;;;13.83;55.14
25156;BME280;21913;52.456;13.634;2022-11-20T02:00:16;99897.91;;;13.83;55.20
25156;BME280;21913;52.456;13.634;2022-11-20T02:05:46;99897.91;;;13.83;55.24
25156;BME280;21913;52.456;13.634;2022-11-20T02:10:50;99897.06;;;13.81;55.24
25156;BME280;21913;52.456;13.634;2022-11-20T02:15:52;99888.41;;;13.82;55.34
25156;BME280;21913;52.456;13.634;2022-11-20T02:26:15;99876.25;;;13.81;55.20
25156;BME280;21913;52.456;13.634;2022-11-20T02:31:18;99881.47;;;13.81;55.29
25156;BME280;21913;52.456;13.634;2022-11-20T02:36:19;99878.00;;;13.80;55.17
25156;BME280;21913;52.456;13.634;2022-11-20T02:41:21;99876.25;;;13.81;55.17
25156;BME280;21913;52.456;13.634;2022-11-20T02:46:23;99860.66;;;13.81;55.14
25156;BME280;21913;52.456;13.634;2022-11-20T02:51:24;99864.16;;;13.80;55.07
25156;BME280;21913;52.456;13.634;2022-11-20T02:56:26;99861.53;;;13.80;55.15
25156;BME280;21913;52.456;13.634;2022-11-20T03:01:28;99864.16;;;13.80;54.96
25156;BME280;21913;52.456;13.634;2022-11-20T03:06:30;99863.28;;;13.79;55.21
25156;BME280;21913;52.456;13.634;2022-11-20T03:11:32;99859.81;;;13.80;55.11
25156;BME280;21913;52.456;13.634;2022-11-20T03:16:33;99862.41;;;13.80;55.19
25156;BME280;21913;52.456;13.634;2022-11-20T03:21:35;99858.94;;;13.80;55.25
25156;BME280;21913;52.456;13.634;2022-11-20T03:26:38;99855.47;;;13.81;55.11
25156;BME280;21913;52.456;13.634;2022-11-20T03:31:40;99847.66;;;13.81;55.25
25156;BME280;21913;52.456;13.634;2022-11-20T03:36:42;99842.50;;;13.79;55.21
25156;BME280;21913;52.456;13.634;2022-11-20T03:41:44;99834.69;;;13.79;55.10
25156;BME280;21913;52.456;13.634;2022-11-20T03:46:45;99839.03;;;13.79;55.12
25156;BME280;21913;52.456;13.634;2022-11-20T03:51:47;99835.56;;;13.78;55.14
25156;BME280;21913;52.456;13.634;2022-11-20T03:56:48;99845.13;;;13.78;55.09
25156;BME280;21913;52.456;13.634;2022-11-20T04:01:50;99839.06;;;13.77;55.12
25156;BME280;21913;52.456;13.634;2022-11-20T04:06:52;99836.47;;;13.77;55.12
25156;BME280;21913;52.456;13.634;2022-11-20T04:11:53;99828.66;;;13.77;55.25
25156;BME280;21913;52.456;13.634;2022-11-20T04:16:55;99825.22;;;13.77;55.19
25156;BME280;21913;52.456;13.634;2022-11-20T04:21:57;99825.22;;;13.77;55.33
25156;BME280;21913;52.456;13.634;2022-11-20T04:26:58;99824.34;;;13.76;55.18
25156;BME280;21913;52.456;13.634;2022-11-20T04:32:00;99828.69;;;13.76;55.19
25156;BME280;21913;52.456;13.634;2022-11-20T04:37:01;99826.09;;;13.74;55.18
25156;BME280;21913;52.456;13.634;2022-11-20T04:42:03;99826.97;;;13.75;55.26
25156;BME280;21913;52.456;13.634;2022-11-20T04:47:05;99833.91;;;13.76;55.12
25156;BME280;21913;52.456;13.634;2022-11-20T04:52:06;99831.31;;;13.76;55.23
25156;BME280;21913;52.456;13.634;2022-11-20T04:57:08;99817.44;;;13.74;55.18
25156;BME280;21913;52.456;13.634;2022-11-20T05:02:13;99826.97;;;13.75;55.25
25156;BME280;21913;52.456;13.634;2022-11-20T05:07:15;99823.50;;;13.74;55.18
25156;BME280;21913;52.456;13.634;2022-11-20T05:12:16;99826.97;;;13.75;55.25
25156;BME280;21913;52.456;13.634;2022-11-20T05:17:18;99825.25;;;13.74;55.23
25156;BME280;21913;52.456;13.634;2022-11-20T05:22:20;99833.91;;;13.74;55.34
25156;BME280;21913;52.456;13.634;2022-11-20T05:27:21;99816.59;;;13.73;55.30
25156;BME280;21913;52.456;13.634;2022-11-20T05:32:23;99812.25;;;13.74;55.22
25156;BME280;21913;52.456;13.634;2022-11-20T05:37:25;99811.38;;;13.73;55.23
25156;BME280;21913;52.456;13.634;2022-11-20T05:42:30;99812.25;;;13.74;55.21
25156;BME280;21913;52.456;13.634;2022-11-20T05:47:33;99809.66;;;13.74;55.38
25156;BME280;21913;52.456;13.634;2022-11-20T05:52:35;99810.53;;;13.73;55.39
25156;BME280;21913;52.456;13.634;2022-11-20T05:57:37;99815.72;;;13.73;55.31
25156;BME280;21913;52.456;13.634;2022-11-20T06:02:38;99803.59;;;13.73;55.35
25156;BME280;21913;52.456;13.634;2022-11-20T06:07:40;99795.81;;;13.72;55.35
25156;BME280;21913;52.456;13.634;2022-11-20T06:12:42;99797.53;;;13.73;55.42
25156;BME280;21913;52.456;13.634;2022-11-20T06:17:43;99795.81;;;13.72;55.37
25156;BME280;21913;52.456;13.634;2022-11-20T06:22:45;99806.25;;;13.70;55.43
25156;BME280;21913;52.456;13.634;2022-11-20T06:27:46;99807.13;;;13.71;55.48
25156;BME280;21913;52.456;13.634;2022-11-20T06:32:48;99805.38;;;13.69;55.40
25156;BME280;21913;52.456;13.634;2022-11-20T06:37:50;99804.50;;;13.71;55.44
25156;BME280;21913;52.456;13.634;2022-11-20T06:42:53;99809.72;;;13.71;55.44
25156;BME280;21913;52.456;13.634;2022-11-20T06:47:57;99807.97;;;13.69;55.34
25156;BME280;21913;52.456;13.634;2022-11-20T06:53:03;99815.78;;;13.69;55.39
25156;BME280;21913;52.456;13.634;2022-11-20T06:58:05;99816.66;;;13.68;55.42
25156;BME280;21913;52.456;13.634;2022-11-20T07:03:08;99835.72;;;13.71;55.47
25156;BME280;21913;52.456;13.634;2022-11-20T07:08:09;99832.25;;;13.68;55.47
25156;BME280;21913;52.456;13.634;2022-11-20T07:13:11;99833.13;;;13.69;55.49
25156;BME280;21913;52.456;13.634;2022-11-20T07:18:13;99842.66;;;13.68;55.32
25156;BME280;21913;52.456;13.634;2022-11-20T07:23:14;99834.84;;;13.68;55.35
25156;BME280;21913;52.456;13.634;2022-11-20T07:28:16;99827.94;;;13.67;55.42
25156;BME280;21913;52.456;13.634;2022-11-20T07:33:18;99833.13;;;13.69;55.42
25156;BME280;21913;52.456;13.634;2022-11-20T07:38:20;99839.19;;;13.68;55.37
25156;BME280;21913;52.456;13.634;2022-11-20T07:43:22;99843.53;;;13.67;55.32
25156;BME280;21913;52.456;13.634;2022-11-20T07:48:24;99840.09;;;13.67;55.41
25156;BME280;21913;52.456;13.634;2022-11-20T07:53:25;99842.69;;;13.67;55.40
25156;BME280;21913;52.456;13.634;2022-11-20T07:58:29;99841.84;;;13.66;55.35
25156;BME280;21913;52.456;13.634;2022-11-20T08:03:31;99842.69;;;13.67;55.24
25156;BME280;21913;52.456;13.634;2022-11-20T08:08:32;99842.72;;;13.65;55.48
25156;BME280;21913;52.456;13.634;2022-11-20T08:13:34;99836.63;;;13.66;55.33
25156;BME280;21913;52.456;13.634;2022-11-20T08:18:36;99839.25;;;13.66;55.37
25156;BME280;21913;52.456;13.634;2022-11-20T08:23:37;99840.13;;;13.65;55.54
25156;BME280;21913;52.456;13.634;2022-11-20T08:28:39;99831.44;;;13.66;55.59
25156;BME280;21913;52.456;13.634;2022-11-20T08:33:42;99828.88;;;13.65;55.50
25156;BME280;21913;52.456;13.634;2022-11-20T08:39:03;99845.28;;;13.67;55.65
25156;BME280;21913;52.456;13.634;2022-11-20T08:44:06;99834.03;;;13.66;55.50
25156;BME280;21913;52.456;13.634;2022-11-20T08:49:10;99837.53;;;13.65;55.20
25156;BME280;21913;52.456;13.634;2022-11-20T08:54:12;99840.13;;;13.65;55.54
25156;BME280;21913;52.456;13.634;2022-11-20T08:59:14;99842.72;;;13.65;55.44
25156;BME280;21913;52.456;13.634;2022-11-20T09:04:35;99840.13;;;13.65;55.61
25156;BME280;21913;52.456;13.634;2022-11-20T09:09:37;99840.97;;;13.66;55.53
25156;BME280;21913;52.456;13.634;2022-11-20T09:14:38;99843.56;;;13.64;55.69
25156;BME280;21913;52.456;13.634;2022-11-20T09:19:40;99845.31;;;13.65;55.53
25156;BME280;21913;52.456;13.634;2022-11-20T09:24:42;99838.38;;;13.64;55.73
25156;BME280;21913;52.456;13.634;2022-11-20T09:29:44;99834.94;;;13.65;55.63
25156;BME280;21913;52.456;13.634;2022-11-20T09:34:45;99840.13;;;13.64;55.62
25156;BME280;21913;52.456;13.634;2022-11-20T09:39:47;99827.13;;;13.65;55.65
25156;BME280;21913;52.456;13.634;2022-11-20T09:50:25;99827.13;;;13.65;55.73
25156;BME280;21913;52.456;13.634;2022-11-20T09:55:33;99823.66;;;13.65;55.85
25156;BME280;21913;52.456;13.634;2022-11-20T10:00:37;99816.72;;;13.65;55.71
25156;BME280;21913;52.456;13.634;2022-11-20T10:10:50;99802.88;;;13.65;55.90
25156;BME280;21913;52.456;13.634;2022-11-20T10:16:21;99795.06;;;13.65;55.89
25156;BME280;21913;52.456;13.634;2022-11-20T10:32:20;99776.88;;;13.63;55.86
25156;BME280;21913;52.456;13.634;2022-11-20T10:37:25;99769.06;;;13.63;55.94
25156;BME280;21913;52.456;13.634;2022-11-20T10:42:57;99764.72;;;13.64;55.87
25156;BME280;21913;52.456;13.634;2022-11-20T10:53:31;99769.94;;;13.64;55.95
25156;BME280;21913;52.456;13.634;2022-11-20T11:04:23;99756.97;;;13.62;56.02
25156;BME280;21913;52.456;13.634;2022-11-20T11:09:34;99757.81;;;13.63;56.02
25156;BME280;21913;52.456;13.634;2022-11-20T11:14:48;99737.88;;;13.63;56.08
25156;BME280;21913;52.456;13.634;2022-11-20T11:25:42;99729.22;;;13.63;56.04
25156;BME280;21913;52.456;13.634;2022-11-20T11:30:49;99724.91;;;13.62;56.04
25156;BME280;21913;52.456;13.634;2022-11-20T11:35:59;99720.63;;;13.61;56.19
25156;BME280;21913;52.456;13.634;2022-11-20T11:41:02;99723.19;;;13.62;56.20
25156;BME280;21913;52.456;13.634;2022-11-20T11:46:31;99721.44;;;13.63;56.23
25156;BME280;21913;52.456;13.634;2022-11-20T11:52:14;99716.28;;;13.61;56.09
25156;BME280;21913;52.456;13.634;2022-11-20T11:57:37;99705.03;;;13.61;56.05
25156;BME280;21913;52.456;13.634;2022-11-20T12:02:53;99701.56;;;13.60;56.18
25156;BME280;21913;52.456;13.634;2022-11-20T12:18:31;99697.22;;;13.61;56.28
25156;BME280;21913;52.456;13.634;2022-11-20T12:23:36;99690.28;;;13.61;56.28
25156;BME280;21913;52.456;13.634;2022-11-20T12:28:57;99685.97;;;13.60;56.11
25156;BME280;21913;52.456;13.634;2022-11-20T12:39:34;99666.03;;;13.61;56.30
25156;BME280;21913;52.456;13.634;2022-11-20T12:50:11;99649.56;;;13.60;56.28
25156;BME280;21913;52.456;13.634;2022-11-20T13:00:51;99633.97;;;13.59;56.36
25156;BME280;21913;52.456;13.634;2022-11-20T13:06:17;99620.97;;;13.60;56.41
25156;BME280;21913;52.456;13.634;2022-11-20T13:11:47;99639.25;;;13.56;55.82
25156;BME280;21913;52.456;13.634;2022-11-20T13:16:55;99631.53;;;13.51;54.28
25156;BME280;21913;52.456;13.634;2022-11-20T13:22:02;99624.63;;;13.50;54.13
25156;BME280;21913;52.456;13.634;2022-11-20T13:32:32;99602.06;;;13.52;54.33
25156;BME280;21913;52.456;13.634;2022-11-20T13:37:37;99578.66;;;13.54;54.47
25156;BME280;21913;52.456;13.634;2022-11-20T13:42:44;99565.63;;;13.55;54.50
25156;BME280;21913;52.456;13.634;2022-11-20T13:47:50;99556.97;;;13.55;54.49
25156;BME280;21913;52.456;13.634;2022-11-20T14:03:31;99531.84;;;13.55;54.81
25156;BME280;21913;52.456;13.634;2022-11-20T14:08:51;99518.84;;;13.55;54.97
25156;BME280;21913;52.456;13.634;2022-11-20T14:14:18;99518.84;;;13.55;54.91
25156;BME280;21913;52.456;13.634;2022-11-20T14:24:24;99511.03;;;13.55;55.19
25156;BME280;21913;52.456;13.634;2022-11-20T14:29:33;99502.34;;;13.56;55.25
25156;BME280;21913;52.456;13.634;2022-11-20T14:34:39;99487.66;;;13.55;55.33
25156;BME280;21913;52.456;13.634;2022-11-20T14:39:42;99481.59;;;13.55;55.33
25156;BME280;21913;52.456;13.634;2022-11-20T14:44:50;99485.06;;;13.55;55.29
25156;BME280;21913;52.456;13.634;2022-11-20T14:49:53;99478.16;;;13.54;55.37
25156;BME280;21913;52.456;13.634;2022-11-20T14:54:58;99472.06;;;13.55;55.41
25156;BME280;21913;52.456;13.634;2022-11-20T15:05:10;99459.06;;;13.55;55.54
25156;BME280;21913;52.456;13.634;2022-11-20T15:15:21;99443.50;;;13.54;55.56
25156;BME280;21913;52.456;13.634;2022-11-20T15:20:28;99446.09;;;13.54;55.52
25156;BME280;21913;52.456;13.634;2022-11-20T15:25:31;99445.22;;;13.53;55.56
25156;BME280;21913;52.456;13.634;2022-11-20T15:30:33;99420.13;;;13.54;55.53
25156;BME280;21913;52.456;13.634;2022-11-20T15:35:34;99407.13;;;13.54;55.59
25156;BME280;21913;52.456;13.634;2022-11-20T15:40:36;99418.38;;;13.53;55.62
25156;BME280;21913;52.456;13.634;2022-11-20T15:45:46;99409.72;;;13.54;55.70
25156;BME280;21913;52.456;13.634;2022-11-20T15:56:03;99388.94;;;13.54;55.68
25156;BME280;21913;52.456;13.634;2022-11-20T16:01:05;99392.38;;;13.54;55.66
25156;BME280;21913;52.456;13.634;2022-11-20T16:06:07;99374.19;;;13.54;55.77
25156;BME280;21913;52.456;13.634;2022-11-20T16:11:12;99369.00;;;13.54;55.85
25156;BME280;21913;52.456;13.634;2022-11-20T16:16:27;99361.19;;;13.54;55.75
25156;BME280;21913;52.456;13.634;2022-11-20T16:21:30;99350.81;;;13.54;55.92
25156;BME280;21913;52.456;13.634;2022-11-20T16:26:32;99346.47;;;13.53;55.71
25156;BME280;21913;52.456;13.634;2022-11-20T16:31:34;99341.28;;;13.53;55.81
25156;BME280;21913;52.456;13.634;2022-11-20T16:36:39;99333.47;;;13.53;55.96
25156;BME280;21913;52.456;13.634;2022-11-20T16:41:40;99323.97;;;13.52;55.88
25156;BME280;21913;52.456;13.634;2022-11-20T16:46:42;99311.84;;;13.53;55.87
25156;BME280;21913;52.456;13.634;2022-11-20T16:51:44;99301.47;;;13.51;56.16
25156;BME280;21913;52.456;13.634;2022-11-20T16:56:45;99304.03;;;13.53;56.03
25156;BME280;21913;52.456;13.634;2022-11-20T17:01:47;99304.88;;;13.53;56.07
25156;BME280;21913;52.456;13.634;2022-11-20T17:06:49;99303.19;;;13.52;56.10
25156;BME280;21913;52.456;13.634;2022-11-20T17:11:50;99292.78;;;13.52;56.04
25156;BME280;21913;52.456;13.634;2022-11-20T17:16:52;99271.16;;;13.52;56.19
25156;BME280;21913;52.456;13.634;2022-11-20T17:21:54;99256.41;;;13.52;56.17
25156;BME280;21913;52.456;13.634;2022-11-20T17:26:55;99256.41;;;13.52;56.11
25156;BME280;21913;52.456;13.634;2022-11-20T17:31:57;99262.50;;;13.51;56.14
25156;BME280;21913;52.456;13.634;2022-11-20T17:36:58;99239.97;;;13.52;56.27
25156;BME280;21913;52.456;13.634;2022-11-20T17:42:00;99252.94;;;13.52;56.27
25156;BME280;21913;52.456;13.634;2022-11-20T17:47:02;99255.56;;;13.52;56.28
25156;BME280;21913;52.456;13.634;2022-11-20T17:52:04;99243.47;;;13.51;56.38
25156;BME280;21913;52.456;13.634;2022-11-20T17:57:06;99233.91;;;13.51;56.37
25156;BME280;21913;52.456;13.634;2022-11-20T18:02:09;99216.63;;;13.50;56.36
25156;BME280;21913;52.456;13.634;2022-11-20T18:07:10;99207.94;;;13.51;56.36
25156;BME280;21913;52.456;13.634;2022-11-20T18:12:12;99204.44;;;13.52;56.43
25156;BME280;21913;52.456;13.634;2022-11-20T18:17:14;99195.81;;;13.50;56.57
25156;BME280;21913;52.456;13.634;2022-11-20T18:22:17;99185.44;;;13.50;56.54
25156;BME280;21913;52.456;13.634;2022-11-20T18:27:19;99180.28;;;13.49;56.40
25156;BME280;21913;52.456;13.634;2022-11-20T18:32:21;99175.88;;;13.51;56.59
25156;BME280;21913;52.456;13.634;2022-11-20T18:37:23;99164.66;;;13.50;56.63
25156;BME280;21913;52.456;13.634;2022-11-20T18:42:25;99156.00;;;13.48;56.69
25156;BME280;21913;52.456;13.634;2022-11-20T18:47:28;99149.09;;;13.49;56.67
25156;BME280;21913;52.456;13.634;2022-11-20T18:52:33;99136.97;;;13.49;56.69
25156;BME280;21913;52.456;13.634;2022-11-20T18:57:34;99125.66;;;13.50;56.68
25156;BME280;21913;52.456;13.634;2022-11-20T19:02:37;99123.13;;;13.49;56.69
25156;BME280;21913;52.456;13.634;2022-11-20T19:07:41;99113.56;;;13.49;56.78
25156;BME280;21913;52.456;13.634;2022-11-20T19:12:43;99103.19;;;13.49;56.71
25156;BME280;21913;52.456;13.634;2022-11-20T19:17:45;99092.78;;;13.49;56.72
25156;BME280;21913;52.456;13.634;2022-11-20T19:22:49;99081.53;;;13.49;56.79
25156;BME280;21913;52.456;13.634;2022-11-20T19:27:51;99088.44;;;13.48;56.81
25156;BME280;21913;52.456;13.634;2022-11-20T19:32:52;99072.00;;;13.48;56.79
25156;BME280;21913;52.456;13.634;2022-11-20T19:37:54;99060.78;;;13.47;56.79
25156;BME280;21913;52.456;13.634;2022-11-20T19:42:55;99040.81;;;13.48;56.92
25156;BME280;21913;52.456;13.634;2022-11-20T19:47:57;99039.06;;;13.48;56.96
25156;BME280;21913;52.456;13.634;2022-11-20T19:53:07;99029.56;;;13.49;56.94
25156;BME280;21913;52.456;13.634;2022-11-20T19:58:09;99017.44;;;13.48;56.94
25156;BME280;21913;52.456;13.634;2022-11-20T20:03:11;99003.59;;;13.47;56.94
25156;BME280;21913;52.456;13.634;2022-11-20T20:08:13;99000.09;;;13.48;56.95
25156;BME280;21913;52.456;13.634;2022-11-20T20:13:17;98992.31;;;13.48;56.91
25156;BME280;21913;52.456;13.634;2022-11-20T20:18:19;98983.66;;;13.48;56.92
25156;BME280;21913;52.456;13.634;2022-11-20T20:23:20;98972.41;;;13.47;56.95
25156;BME280;21913;52.456;13.634;2022-11-20T20:28:22;98962.03;;;13.47;57.04
25156;BME280;21913;52.456;13.634;2022-11-20T20:33:23;98952.53;;;13.46;57.13
25156;BME280;21913;52.456;13.634;2022-11-20T20:38:25;98955.97;;;13.47;56.96
25156;BME280;21913;52.456;13.634;2022-11-20T20:43:27;98950.78;;;13.47;57.18
25156;BME280;21913;52.456;13.634;2022-11-20T20:48:29;98935.19;;;13.47;57.13
25156;BME280;21913;52.456;13.634;2022-11-20T20:53:31;98936.03;;;13.47;57.11
25156;BME280;21913;52.456;13.634;2022-11-20T20:58:32;98929.16;;;13.46;57.16
25156;BME280;21913;52.456;13.634;2022-11-20T21:03:35;98921.34;;;13.46;57.22
25156;BME280;21913;52.456;13.634;2022-11-20T21:08:37;98900.56;;;13.46;57.19
25156;BME280;21913;52.456;13.634;2022-11-20T21:13:41;98902.31;;;13.46;57.18
25156;BME280;21913;52.456;13.634;2022-11-20T21:18:44;98899.72;;;13.46;57.17
25156;BME280;21913;52.456;13.634;2022-11-20T21:23:46;98897.13;;;13.46;57.30
25156;BME280;21913;52.456;13.634;2022-11-20T21:28:48;98892.78;;;13.46;57.37
25156;BME280;21913;52.456;13.634;2022-11-20T21:33:51;98893.63;;;13.47;57.25
25156;BME280;21913;52.456;13.634;2022-11-20T21:38:54;98888.47;;;13.45;57.30
25156;BME280;21913;52.456;13.634;2022-11-20T21:43:58;98893.69;;;13.45;57.15
25156;BME280;21913;52.456;13.634;2022-11-20T21:49:20;98900.63;;;13.45;57.32
25156;BME280;21913;52.456;13.634;2022-11-20T21:54:22;98901.47;;;13.45;57.37
25156;BME280;21913;52.456;13.634;2022-11-20T21:59:23;98906.66;;;13.45;57.32
25156;BME280;21913;52.456;13.634;2022-11-20T22:04:25;98904.97;;;13.44;57.27
25156;BME280;21913;52.456;13.634;2022-11-20T22:09:27;98904.91;;;13.46;57.39
25156;BME280;21913;52.456;13.634;2022-11-20T22:14:28;98901.47;;;13.45;57.27
25156;BME280;21913;52.456;13.634;2022-11-20T22:19:30;98904.97;;;13.44;57.39
25156;BME280;21913;52.456;13.634;2022-11-20T22:24:32;98916.22;;;13.45;57.32
25156;BME280;21913;52.456;13.634;2022-11-20T22:29:33;98928.34;;;13.44;57.41
25156;BME280;21913;52.456;13.634;2022-11-20T22:34:35;98931.81;;;13.45;57.32
25156;BME280;21913;52.456;13.634;2022-11-20T22:39:36;98936.16;;;13.44;57.38
25156;BME280;21913;52.456;13.634;2022-11-20T22:44:38;98948.28;;;13.44;57.35
25156;BME280;21913;52.456;13.634;2022-11-20T22:49:40;98956.09;;;13.44;57.39
25156;BME280;21913;52.456;13.634;2022-11-20T22:54:41;98976.88;;;13.44;57.45
25156;BME280;21913;52.456;13.634;2022-11-20T22:59:43;98982.06;;;13.44;57.41
25156;BME280;21913;52.456;13.634;2022-11-20T23:04:44;98994.16;;;13.45;57.46
25156;BME280;21913;52.456;13.634;2022-11-20T23:09:46;98998.50;;;13.44;57.44
25156;BME280;21913;52.456;13.634;2022-11-20T23:14:48;99004.56;;;13.45;57.43
25156;BME280;21913;52.456;13.634;2022-11-20T23:19:50;99018.44;;;13.44;57.41
25156;BME280;21913;52.456;13.634;2022-11-20T23:24:51;99022.78;;;13.43;57.54
25156;BME280;21913;52.456;13.634;2022-11-20T23:29:53;99021.91;;;13.44;57.53
25156;BME280;21913;52.456;13.634;2022-11-20T23:34:55;99030.59;;;13.43;57.54
25156;BME280;21913;52.456;13.634;2022-11-20T23:39:56;99043.59;;;13.43;57.53
25156;BME280;21913;52.456;13.634;2022-11-20T23:44:58;99041.84;;;13.42;57.51
25156;BME280;21913;52.456;13.634;2022-11-20T23:49:59;99044.44;;;13.44;57.48
25156;BME280;21913;52.456;13.634;2022-11-20T23:55:01;99058.28;;;13.42;57.53
